Time;durP1;ratioP1;P1;durP2;ratioP2;P2;SDS_P1;SDS_P2;PMS_P1;PMS_P2;Temp;Humidity;BMP_temperature;BMP_pressure;BME280_temperature;BME280_humidity;BME280_pressure;Samples;Min_cycle;Max_cycle;Signal;HPM_P1;HPM_P2
2023/07/24 00:00:03;;;;;;;0.30;0.30;;;;;;;20.60;71.45;99987.06;5205776;28;20116;-86
2023/07/24 00:02:55;;;;;;;0.38;0.38;;;;;;;20.39;73.95;100002.97;5192965;28;20044;-86
2023/07/24 00:05:46;;;;;;;0.30;0.30;;;;;;;20.55;71.87;99988.41;5208131;28;20048;-86
2023/07/24 00:08:38;;;;;;;1.05;0.75;;;;;;;20.56;71.08;99990.09;5207132;28;20037;-84
2023/07/24 00:11:29;;;;;;;0.32;0.32;;;;;;;20.58;70.62;99982.84;5194870;28;20428;-85
2023/07/24 00:14:20;;;;;;;0.30;0.30;;;;;;;20.58;70.51;99982.84;5192625;28;20513;-84
2023/07/24 00:17:10;;;;;;;0.52;0.52;;;;;;;20.57;70.35;99986.47;5225233;28;20052;-84
2023/07/24 00:20:01;;;;;;;0.90;0.60;;;;;;;20.55;70.21;99983.06;5207557;28;20029;-84
2023/07/24 00:22:52;;;;;;;0.20;0.20;;;;;;;20.53;70.32;99979.72;5190997;28;20017;-84
2023/07/24 00:25:43;;;;;;;0.20;0.20;;;;;;;20.54;69.70;99976.03;5206014;28;20063;-85
2023/07/24 00:28:34;;;;;;;0.68;0.68;;;;;;;20.50;69.49;99975.44;5194275;28;20126;-85
2023/07/24 00:31:24;;;;;;;0.30;0.30;;;;;;;20.48;69.81;99972.09;5189213;28;20039;-84
2023/07/24 00:34:15;;;;;;;0.25;0.25;;;;;;;20.50;69.14;99970.13;5190034;28;20072;-85
2023/07/24 00:37:06;;;;;;;0.30;0.30;;;;;;;20.49;69.25;99967.59;5194670;28;20041;-84
2023/07/24 00:39:57;;;;;;;0.10;0.10;;;;;;;20.43;69.85;99967.13;5193430;28;20036;-86
2023/07/24 00:42:48;;;;;;;0.45;0.45;;;;;;;20.42;69.55;99973.41;5189726;28;20221;-85
2023/07/24 00:45:39;;;;;;;0.28;0.28;;;;;;;20.35;71.33;99964.22;5208406;28;20128;-85
2023/07/24 00:48:31;;;;;;;0.20;0.20;;;;;;;20.37;70.07;99969.44;5212615;28;20025;-84
2023/07/24 00:51:22;;;;;;;0.38;0.38;;;;;;;20.37;69.88;99958.78;5246860;28;20013;-84
2023/07/24 00:54:16;;;;;;;0.40;0.40;;;;;;;20.34;70.12;99948.34;5212887;28;20047;-83
2023/07/24 00:57:07;;;;;;;0.50;0.50;;;;;;;20.35;69.52;99945.59;5212025;28;20033;-86
2023/07/24 00:59:59;;;;;;;0.40;0.40;;;;;;;20.38;69.65;99939.16;5209926;28;20105;-85
2023/07/24 01:02:51;;;;;;;0.30;0.30;;;;;;;20.36;69.83;99933.09;5195063;28;20082;-84
2023/07/24 01:05:42;;;;;;;0.30;0.30;;;;;;;20.35;69.51;99939.41;5206688;28;20033;-84
2023/07/24 01:08:33;;;;;;;0.38;0.38;;;;;;;20.36;69.60;99923.31;5210080;28;20054;-85
2023/07/24 01:11:32;;;;;;;0.40;0.40;;;;;;;20.35;69.35;99924.28;5205430;28;20033;-84
2023/07/24 01:14:29;;;;;;;0.28;0.28;;;;;;;20.38;69.29;99924.00;5219581;28;20033;-85
2023/07/24 01:17:24;;;;;;;0.30;0.30;;;;;;;20.41;68.82;99907.78;5210253;28;20518;-84
2023/07/24 01:20:17;;;;;;;0.73;0.60;;;;;;;20.38;69.01;99907.19;5205309;28;20128;-84
2023/07/24 01:23:11;;;;;;;0.43;0.43;;;;;;;20.35;68.91;99902.97;5205681;28;20044;-84
2023/07/24 01:26:04;;;;;;;0.47;0.47;;;;;;;20.28;69.73;99907.94;5191421;28;20049;-85
2023/07/24 01:28:55;;;;;;;;;;;;;;;20.29;69.08;99892.78;5193362;28;20032;-86
2023/07/24 01:31:46;;;;;;;0.30;0.30;;;;;;;20.24;69.75;99887.84;5217803;28;19915;-85
2023/07/24 01:34:36;;;;;;;0.40;0.40;;;;;;;20.23;70.90;99872.84;5187983;28;20038;-85
2023/07/24 01:37:28;;;;;;;0.52;0.52;;;;;;;20.23;70.00;99883.50;5192396;28;20024;-85
2023/07/24 01:40:21;;;;;;;0.30;0.30;;;;;;;20.23;69.90;99878.16;5190946;28;20039;-84
2023/07/24 01:43:12;;;;;;;0.50;0.50;;;;;;;20.22;69.55;99868.47;5208680;28;20071;-84
2023/07/24 01:46:03;;;;;;;0.30;0.30;;;;;;;20.20;69.79;99862.44;5188222;28;20033;-84
2023/07/24 01:48:54;;;;;;;0.38;0.38;;;;;;;20.22;69.41;99867.63;5217949;28;20028;-85
2023/07/24 01:51:44;;;;;;;0.20;0.20;;;;;;;20.22;69.08;99878.28;5225464;28;20029;-84
2023/07/24 01:54:35;;;;;;;0.95;0.93;;;;;;;20.20;69.65;99872.25;5191360;28;20033;-85
2023/07/24 01:57:26;;;;;;;0.40;0.40;;;;;;;20.19;69.48;99854.56;5192372;28;20064;-85
2023/07/24 02:00:17;;;;;;;0.15;0.15;;;;;;;20.13;69.56;99846.09;5185600;28;20693;-85
2023/07/24 02:03:07;;;;;;;0.30;0.30;;;;;;;20.20;69.31;99841.13;5204306;28;20039;-85
2023/07/24 02:05:58;;;;;;;0.82;0.82;;;;;;;20.10;70.12;99841.03;5192077;28;20858;-85
2023/07/24 02:08:51;;;;;;;0.30;0.30;;;;;;;20.15;70.87;99845.13;5191580;28;20025;-87
2023/07/24 02:11:41;;;;;;;0.30;0.30;;;;;;;20.15;69.75;99842.47;5207622;28;20036;-86
2023/07/24 02:14:32;;;;;;;0.50;0.50;;;;;;;20.12;70.30;99838.25;5186709;28;20040;-84
2023/07/24 02:17:23;;;;;;;0.38;0.38;;;;;;;20.16;69.89;99838.84;5190797;28;20511;-85
2023/07/24 02:20:14;;;;;;;0.55;0.55;;;;;;;20.11;70.81;99832.09;5208648;28;20036;-84
2023/07/24 02:23:06;;;;;;;0.50;0.50;;;;;;;20.22;70.73;99827.66;5204320;28;20432;-85
2023/07/24 02:25:57;;;;;;;0.35;0.35;;;;;;;20.10;70.97;99803.75;5202026;28;20037;-83
2023/07/24 02:28:48;;;;;;;0.20;0.20;;;;;;;20.20;70.77;99824.31;5192133;28;20048;-85
2023/07/24 02:31:38;;;;;;;1.52;0.55;;;;;;;20.13;72.83;99832.78;5204491;28;20036;-85
2023/07/24 02:34:29;;;;;;;0.40;0.40;;;;;;;19.90;75.09;99825.81;5189619;28;20589;-85
2023/07/24 02:37:20;;;;;;;2.15;1.02;;;;;;;20.02;74.09;99835.50;5206295;28;20108;-86
2023/07/24 02:40:11;;;;;;;0.40;0.40;;;;;;;20.06;74.45;99847.56;5207629;28;20039;-85
2023/07/24 02:43:02;;;;;;;0.38;0.38;;;;;;;20.05;72.82;99835.22;5207081;28;20677;-85
2023/07/24 02:45:53;;;;;;;0.30;0.30;;;;;;;20.05;74.15;99832.56;5212605;28;20056;-85
2023/07/24 02:48:44;;;;;;;0.90;0.85;;;;;;;20.05;72.67;99829.06;5190187;28;20041;-86
2023/07/24 02:51:34;;;;;;;0.52;0.52;;;;;;;20.07;72.31;99819.97;5223793;28;20021;-86
2023/07/24 02:54:26;;;;;;;0.35;0.35;;;;;;;20.11;72.52;99825.91;5189940;28;20041;-84
2023/07/24 02:57:17;;;;;;;1.27;0.75;;;;;;;20.00;73.88;99829.44;5220087;28;20088;-84
2023/07/24 03:00:08;;;;;;;0.73;0.70;;;;;;;20.04;72.34;99820.22;5206169;28;20043;-87
2023/07/24 03:02:59;;;;;;;0.50;0.50;;;;;;;20.08;71.79;99816.34;5187310;28;20029;-84
2023/07/24 03:05:50;;;;;;;0.73;0.73;;;;;;;20.07;71.58;99811.16;5193087;28;20025;-86
2023/07/24 03:08:41;;;;;;;7.82;1.25;;;;;;;20.07;71.15;99804.00;5193863;28;20037;-85
2023/07/24 03:11:32;;;;;;;0.20;0.20;;;;;;;20.07;71.00;99809.31;5195899;28;20021;-85
2023/07/24 03:14:22;;;;;;;0.43;0.40;;;;;;;20.06;71.70;99812.94;5200893;28;20052;-85
2023/07/24 03:17:13;;;;;;;2.33;1.33;;;;;;;20.09;71.78;99809.19;5195690;28;20040;-84
2023/07/24 03:20:14;;;;;;;0.60;0.60;;;;;;;20.05;71.97;99805.94;5224297;28;20124;-85
2023/07/24 03:23:05;;;;;;;0.45;0.45;;;;;;;20.11;71.20;99809.91;5223231;28;20044;-84
2023/07/24 03:25:56;;;;;;;1.85;0.82;;;;;;;20.17;71.52;99819.22;5209993;28;20048;-86
2023/07/24 03:28:46;;;;;;;0.38;0.38;;;;;;;20.10;71.28;99816.22;5211740;28;20029;-84
2023/07/24 03:31:37;;;;;;;0.30;0.30;;;;;;;20.05;73.16;99813.91;5194115;28;20017;-85
2023/07/24 03:34:28;;;;;;;0.98;0.50;;;;;;;20.11;71.60;99813.44;5209821;28;20041;-85
2023/07/24 03:37:19;;;;;;;0.43;0.43;;;;;;;20.13;71.38;99807.97;5226601;28;20025;-84
2023/07/24 03:40:10;;;;;;;1.55;0.82;;;;;;;20.09;71.22;99811.84;5192951;28;20088;-85
2023/07/24 03:43:01;;;;;;;0.95;0.95;;;;;;;20.04;71.86;99801.56;5213815;28;20036;-86
2023/07/24 03:45:51;;;;;;;0.52;0.52;;;;;;;20.02;74.04;99798.22;5213570;28;20083;-85
2023/07/24 03:48:42;;;;;;;0.77;0.75;;;;;;;20.10;71.71;99803.75;5199488;28;20071;-85
2023/07/24 03:51:33;;;;;;;2.03;1.00;;;;;;;20.11;72.21;99800.13;5206787;28;20115;-85
2023/07/24 03:54:24;;;;;;;0.35;0.35;;;;;;;20.08;72.07;99787.06;5191339;28;20041;-84
2023/07/24 03:57:15;;;;;;;0.50;0.50;;;;;;;20.02;72.39;99794.69;5193648;28;20040;-85
2023/07/24 04:00:06;;;;;;;1.13;0.68;;;;;;;19.98;73.50;99788.78;5210074;28;20040;-85
2023/07/24 04:02:57;;;;;;;0.50;0.38;;;;;;;20.02;72.17;99784.91;5194907;28;20115;-84
2023/07/24 04:05:48;;;;;;;0.32;0.32;;;;;;;19.90;74.09;99783.22;5195472;28;20148;-86
2023/07/24 04:08:38;;;;;;;0.68;0.68;;;;;;;19.85;74.67;99788.09;5208250;28;20029;-85
2023/07/24 04:11:29;;;;;;;1.23;0.65;;;;;;;19.88;73.71;99777.16;5206759;28;20029;-86
2023/07/24 04:14:20;;;;;;;1.10;0.82;;;;;;;19.86;73.29;99789.78;5200788;28;20408;-84
2023/07/24 04:17:11;;;;;;;0.30;0.30;;;;;;;19.76;74.93;99786.97;5195212;28;20029;-85
2023/07/24 04:20:03;;;;;;;0.60;0.60;;;;;;;19.93;72.57;99793.63;5206222;28;20465;-85
2023/07/24 04:22:53;;;;;;;0.30;0.30;;;;;;;19.85;74.86;99785.44;5209126;28;20028;-85
2023/07/24 04:25:44;;;;;;;0.52;0.40;;;;;;;19.88;72.80;99783.34;5208213;28;20120;-85
2023/07/24 04:28:35;;;;;;;0.63;0.63;;;;;;;19.87;74.29;99780.84;5194706;28;20029;-85
2023/07/24 04:31:26;;;;;;;0.93;0.47;;;;;;;19.93;72.31;99785.66;5193278;28;20456;-85
2023/07/24 04:34:16;;;;;;;1.00;0.80;;;;;;;19.94;72.03;99787.34;5193194;28;20041;-85
2023/07/24 04:37:07;;;;;;;0.85;0.52;;;;;;;19.93;72.18;99783.81;5189094;28;20037;-85
2023/07/24 04:39:58;;;;;;;0.22;0.22;;;;;;;19.98;72.16;99780.78;5208070;28;20488;-86
2023/07/24 04:42:49;;;;;;;0.20;0.20;;;;;;;19.96;72.32;99785.38;5210066;28;20099;-85
2023/07/24 04:45:40;;;;;;;0.70;0.70;;;;;;;19.99;72.23;99792.28;5196199;28;20591;-85
2023/07/24 04:48:30;;;;;;;2.38;0.40;;;;;;;19.95;72.29;99805.00;5196233;28;20065;-85
2023/07/24 04:51:21;;;;;;;0.75;0.75;;;;;;;19.93;73.64;99802.44;5208084;28;20041;-86
2023/07/24 04:54:12;;;;;;;0.40;0.40;;;;;;;19.92;73.40;99794.59;5202844;28;20758;-85
2023/07/24 04:57:03;;;;;;;0.43;0.43;;;;;;;19.90;73.76;99805.38;5218805;28;20036;-84
2023/07/24 04:59:54;;;;;;;0.52;0.52;;;;;;;19.99;72.46;99800.28;5190961;28;20049;-83
2023/07/24 05:02:45;;;;;;;2.53;1.38;;;;;;;20.00;73.42;99802.81;5185492;28;20029;-85
2023/07/24 05:05:35;;;;;;;0.45;0.45;;;;;;;20.08;72.99;99800.38;5220999;28;20492;-85
2023/07/24 05:08:26;;;;;;;1.17;0.80;;;;;;;19.81;75.52;99796.28;5207383;28;20029;-85
2023/07/24 05:11:17;;;;;;;0.68;0.68;;;;;;;19.77;76.08;99801.97;5191134;28;20463;-85
2023/07/24 05:14:08;;;;;;;1.55;0.85;;;;;;;19.98;74.38;99802.09;5215317;28;20041;-84
2023/07/24 05:16:58;;;;;;;0.45;0.45;;;;;;;19.96;73.57;99812.00;5213043;28;20063;-85
2023/07/24 05:19:49;;;;;;;2.67;0.80;;;;;;;19.86;75.45;99800.44;5196417;28;20033;-85
2023/07/24 05:22:40;;;;;;;0.70;0.70;;;;;;;19.81;75.60;99814.06;5204406;28;20039;-85
2023/07/24 05:25:31;;;;;;;0.75;0.52;;;;;;;19.72;76.89;99826.28;5193219;28;20041;-85
2023/07/24 05:28:22;;;;;;;1.20;1.10;;;;;;;19.78;76.37;99815.16;5197527;28;20041;-85
2023/07/24 05:31:12;;;;;;;0.85;0.85;;;;;;;19.88;75.17;99822.41;5189056;28;20120;-85
2023/07/24 05:34:03;;;;;;;0.57;0.57;;;;;;;19.81;75.35;99824.72;5204429;28;20404;-85
2023/07/24 05:36:54;;;;;;;1.80;0.55;;;;;;;19.60;77.05;99825.44;5204322;28;20480;-85
2023/07/24 05:39:45;;;;;;;0.75;0.75;;;;;;;19.69;75.79;99820.38;5186428;28;20120;-85
2023/07/24 05:42:41;;;;;;;0.30;0.30;;;;;;;19.62;75.99;99818.19;5201765;28;20399;-85
2023/07/24 05:45:32;;;;;;;1.10;0.75;;;;;;;19.55;75.99;99810.81;5194769;28;20036;-84
2023/07/24 05:48:23;;;;;;;0.57;0.30;;;;;;;19.55;75.68;99818.78;5194911;28;20029;-84
2023/07/24 05:51:14;;;;;;;0.43;0.43;;;;;;;19.44;76.03;99828.50;5211878;28;20037;-85
2023/07/24 05:54:05;;;;;;;0.52;0.52;;;;;;;19.33;76.56;99825.81;5200016;28;20067;-85
2023/07/24 05:56:56;;;;;;;2.30;1.10;;;;;;;19.34;76.27;99816.88;5199163;28;20013;-85
2023/07/24 05:59:46;;;;;;;0.38;0.38;;;;;;;19.37;76.44;99821.97;5200501;28;20055;-85
2023/07/24 06:02:37;;;;;;;0.50;0.50;;;;;;;19.26;77.41;99816.63;5184913;28;20047;-84
2023/07/24 06:05:28;;;;;;;0.50;0.50;;;;;;;19.18;77.33;99807.44;5203777;28;20048;-85
2023/07/24 06:08:19;;;;;;;1.02;0.47;;;;;;;19.25;77.11;99814.94;5199925;28;20567;-85
2023/07/24 06:11:10;;;;;;;0.40;0.40;;;;;;;19.21;76.91;99810.84;5186462;28;20131;-84
2023/07/24 06:14:01;;;;;;;0.63;0.63;;;;;;;19.30;76.80;99815.41;5202141;28;20033;-85
2023/07/24 06:16:52;;;;;;;0.63;0.63;;;;;;;19.34;76.45;99809.72;5186370;28;20025;-85
2023/07/24 06:19:42;;;;;;;0.50;0.50;;;;;;;19.40;76.25;99811.06;5188577;28;20094;-85
2023/07/24 06:22:33;;;;;;;2.47;0.73;;;;;;;19.40;76.14;99815.56;5194227;28;20052;-84
2023/07/24 06:25:24;;;;;;;0.70;0.70;;;;;;;19.41;75.97;99817.25;5205362;28;20044;-85
2023/07/24 06:28:16;;;;;;;0.20;0.20;;;;;;;19.52;74.75;99816.41;5186080;28;20055;-85
2023/07/24 06:31:07;;;;;;;0.22;0.22;;;;;;;19.46;74.93;99804.44;5186033;28;20335;-85
2023/07/24 06:33:57;;;;;;;0.93;0.93;;;;;;;19.48;75.50;99819.28;5187669;28;20067;-84
2023/07/24 06:36:48;;;;;;;0.20;0.20;;;;;;;19.47;75.80;99825.56;5228871;28;20025;-85
2023/07/24 06:39:39;;;;;;;0.47;0.47;;;;;;;19.49;75.22;99821.00;5187727;28;20037;-85
2023/07/24 06:42:30;;;;;;;0.82;0.82;;;;;;;19.53;74.61;99821.59;5217429;28;20033;-85
2023/07/24 06:45:21;;;;;;;0.43;0.43;;;;;;;19.49;74.85;99830.78;5198241;28;20029;-84
2023/07/24 06:48:11;;;;;;;0.20;0.20;;;;;;;19.53;74.94;99829.56;5215951;28;20028;-84
2023/07/24 06:51:02;;;;;;;0.30;0.30;;;;;;;19.50;74.36;99822.69;5185592;28;20128;-85
2023/07/24 06:53:53;;;;;;;0.43;0.43;;;;;;;19.61;74.49;99818.34;5216259;28;20432;-84
2023/07/24 06:56:44;;;;;;;0.60;0.60;;;;;;;19.71;74.06;99824.59;5187364;28;20025;-85
2023/07/24 06:59:34;;;;;;;0.43;0.43;;;;;;;19.65;73.53;99819.75;5185766;28;20102;-85
2023/07/24 07:02:25;;;;;;;0.65;0.65;;;;;;;19.81;72.61;99820.22;5198913;28;20108;-84
2023/07/24 07:05:16;;;;;;;0.40;0.40;;;;;;;19.81;72.11;99822.91;5200862;28;20040;-84
2023/07/24 07:08:07;;;;;;;0.40;0.40;;;;;;;19.80;72.36;99812.38;5184617;28;20024;-84
2023/07/24 07:10:59;;;;;;;0.30;0.30;;;;;;;19.82;72.56;99824.59;5184842;28;20060;-84
2023/07/24 07:13:50;;;;;;;1.85;0.57;;;;;;;19.85;72.61;99812.03;5178451;28;20118;-85
2023/07/24 07:16:41;;;;;;;0.30;0.30;;;;;;;19.79;72.27;99819.50;5194231;28;20072;-85
2023/07/24 07:19:31;;;;;;;0.90;0.85;;;;;;;19.89;72.70;99811.66;5206300;28;20178;-85
2023/07/24 07:22:22;;;;;;;0.30;0.30;;;;;;;19.89;71.60;99821.47;5203519;28;20035;-85
2023/07/24 07:25:13;;;;;;;1.58;1.30;;;;;;;19.99;71.40;99824.25;5192169;28;20037;-84
2023/07/24 07:28:04;;;;;;;0.35;0.35;;;;;;;19.95;70.90;99826.31;5196904;28;20112;-85
2023/07/24 07:30:55;;;;;;;0.40;0.40;;;;;;;19.95;71.02;99816.50;5221190;28;20074;-84
2023/07/24 07:33:46;;;;;;;0.30;0.30;;;;;;;19.80;70.96;99821.19;5206503;28;20025;-85
2023/07/24 07:36:36;;;;;;;1.25;1.15;;;;;;;19.91;70.80;99823.06;5193083;28;20035;-85
2023/07/24 07:39:27;;;;;;;0.25;0.25;;;;;;;19.99;70.38;99810.94;5191952;28;20058;-86
2023/07/24 07:42:18;;;;;;;0.50;0.50;;;;;;;19.87;70.22;99812.78;5208506;28;20043;-85
2023/07/24 07:45:09;;;;;;;0.30;0.30;;;;;;;19.95;70.35;99805.84;5191672;28;20060;-84
2023/07/24 07:48:00;;;;;;;0.35;0.35;;;;;;;19.97;70.04;99806.56;5197864;28;20056;-85
2023/07/24 07:50:52;;;;;;;2.30;0.63;;;;;;;19.96;70.17;99806.69;5205148;28;20265;-85
2023/07/24 07:53:42;;;;;;;0.57;0.50;;;;;;;19.96;70.00;99799.56;5190238;28;20025;-86
2023/07/24 07:56:33;;;;;;;0.30;0.30;;;;;;;20.07;69.51;99792.50;5197308;28;20033;-86
2023/07/24 07:59:24;;;;;;;0.43;0.43;;;;;;;19.97;69.91;99792.41;5203216;28;20029;-85
2023/07/24 08:02:15;;;;;;;0.47;0.47;;;;;;;19.86;69.99;99795.94;5190082;28;20096;-85
2023/07/24 08:05:10;;;;;;;0.65;0.65;;;;;;;19.88;70.57;99798.47;5201464;28;20669;-85
2023/07/24 08:08:01;;;;;;;0.52;0.50;;;;;;;19.89;70.31;99806.34;5207781;28;20111;-85
2023/07/24 08:10:51;;;;;;;0.45;0.45;;;;;;;20.03;69.73;99802.56;5194022;28;20033;-85
2023/07/24 08:13:42;;;;;;;0.30;0.30;;;;;;;19.97;70.38;99809.22;5219975;28;20480;-85
2023/07/24 08:16:33;;;;;;;0.20;0.20;;;;;;;20.08;69.95;99810.19;5204870;28;20081;-85
2023/07/24 08:19:28;;;;;;;0.70;0.70;;;;;;;20.11;69.84;99805.44;5187771;28;20412;-85
2023/07/24 08:22:19;;;;;;;0.35;0.35;;;;;;;20.10;70.22;99798.44;5186679;28;20051;-85
2023/07/24 08:25:10;;;;;;;0.20;0.20;;;;;;;20.15;70.08;99783.88;5201904;28;20579;-85
2023/07/24 08:28:01;;;;;;;0.63;0.63;;;;;;;20.19;70.47;99790.66;5196637;28;20091;-85
2023/07/24 08:30:59;;;;;;;0.30;0.30;;;;;;;20.20;69.81;99787.03;5192382;28;20072;-85
2023/07/24 08:33:49;;;;;;;0.30;0.30;;;;;;;20.20;69.34;99793.19;5188103;28;20036;-83
2023/07/24 08:36:40;;;;;;;0.50;0.50;;;;;;;20.16;69.98;99796.22;5189276;28;20032;-83
2023/07/24 08:39:31;;;;;;;0.35;0.35;;;;;;;20.22;69.98;99788.59;5202544;28;20089;-85
2023/07/24 08:42:22;;;;;;;0.30;0.30;;;;;;;20.27;69.64;99783.72;5201393;28;20112;-84
2023/07/24 08:45:13;;;;;;;0.20;0.20;;;;;;;20.33;69.49;99781.53;5218172;28;20496;-84
2023/07/24 08:48:04;;;;;;;0.98;0.93;;;;;;;20.38;69.40;99774.81;5206500;28;20048;-84
2023/07/24 08:50:56;;;;;;;1.98;0.65;;;;;;;20.32;69.74;99790.50;5191832;28;20033;-84
2023/07/24 08:53:48;;;;;;;0.60;0.60;;;;;;;20.19;69.51;99777.34;5190781;28;20092;-84
2023/07/24 08:56:41;;;;;;;1.10;1.00;;;;;;;20.29;69.91;99772.91;5190355;28;20052;-84
2023/07/24 08:59:32;;;;;;;0.45;0.45;;;;;;;20.31;69.44;99776.31;5191315;28;20060;-85
2023/07/24 09:02:23;;;;;;;0.68;0.68;;;;;;;20.37;69.50;99790.94;5209738;28;20107;-84
2023/07/24 09:05:15;;;;;;;0.30;0.30;;;;;;;20.29;69.67;99787.09;5223380;28;20033;-84
2023/07/24 09:08:05;;;;;;;0.40;0.40;;;;;;;20.25;70.25;99792.81;5201859;28;20417;-84
2023/07/24 09:10:57;;;;;;;0.35;0.35;;;;;;;20.43;69.63;99791.28;5218096;28;20036;-84
2023/07/24 09:13:49;;;;;;;0.40;0.30;;;;;;;20.46;69.69;99784.84;5185050;28;20129;-84
2023/07/24 09:16:40;;;;;;;0.73;0.40;;;;;;;20.48;69.43;99779.38;5203306;28;20032;-84
2023/07/24 09:19:31;;;;;;;0.30;0.30;;;;;;;20.52;69.07;99780.84;5200378;28;20087;-84
2023/07/24 09:22:22;;;;;;;0.22;0.22;;;;;;;20.39;68.59;99776.50;5203759;28;20068;-85
2023/07/24 09:25:13;;;;;;;2.22;1.15;;;;;;;20.43;68.80;99767.31;5189687;28;20036;-84
2023/07/24 09:28:14;;;;;;;0.60;0.50;;;;;;;20.53;68.59;99763.88;5189459;28;20033;-84
2023/07/24 09:31:05;;;;;;;0.30;0.30;;;;;;;20.62;68.44;99760.41;5211711;28;20041;-84
2023/07/24 09:33:56;;;;;;;0.38;0.38;;;;;;;20.71;68.65;99762.28;5198491;28;20029;-84
2023/07/24 09:36:47;;;;;;;0.85;0.85;;;;;;;20.85;67.26;99757.66;5186874;28;20029;-84
2023/07/24 09:39:39;;;;;;;0.45;0.45;;;;;;;20.96;67.15;99746.88;5201427;28;20037;-85
2023/07/24 09:42:36;;;;;;;0.65;0.65;;;;;;;21.00;66.30;99742.13;5197460;28;20029;-85
2023/07/24 09:45:27;;;;;;;0.20;0.20;;;;;;;21.10;66.72;99734.19;5186551;28;20455;-85
2023/07/24 09:48:19;;;;;;;0.20;0.20;;;;;;;21.18;66.21;99729.03;5217962;28;20041;-85
2023/07/24 09:51:13;;;;;;;0.40;0.40;;;;;;;21.27;66.29;99727.38;5196941;28;20041;-85
2023/07/24 09:54:12;;;;;;;0.20;0.20;;;;;;;21.22;65.88;99720.63;5216296;28;20093;-85
2023/07/24 09:57:03;;;;;;;1.65;0.38;;;;;;;21.25;66.41;99714.19;5220695;28;20044;-85
2023/07/24 09:59:56;;;;;;;0.35;0.35;;;;;;;21.38;66.02;99713.94;5186936;28;20033;-85
2023/07/24 10:02:48;;;;;;;0.40;0.40;;;;;;;21.44;66.01;99707.22;5202050;28;20179;-85
2023/07/24 10:05:39;;;;;;;0.65;0.60;;;;;;;21.52;65.91;99712.72;5202718;28;20029;-85
2023/07/24 10:08:30;;;;;;;0.47;0.47;;;;;;;21.61;65.22;99706.56;5187972;28;20030;-85
2023/07/24 10:11:22;;;;;;;0.35;0.32;;;;;;;21.58;63.85;99703.31;5206227;28;20130;-85
2023/07/24 10:14:13;;;;;;;1.30;0.47;;;;;;;21.52;64.50;99704.72;5201971;28;20558;-85
2023/07/24 10:17:05;;;;;;;0.30;0.30;;;;;;;21.40;64.14;99698.66;5196421;28;20074;-84
2023/07/24 10:20:03;;;;;;;0.28;0.28;;;;;;;21.42;63.44;99694.00;5204669;28;20432;-84
2023/07/24 10:22:54;;;;;;;0.30;0.30;;;;;;;21.32;63.94;99699.31;5197087;28;20035;-84
2023/07/24 10:25:45;;;;;;;0.30;0.30;;;;;;;21.34;64.42;99696.50;5203317;28;20580;-84
2023/07/24 10:28:38;;;;;;;3.13;1.08;;;;;;;21.51;64.21;99697.69;5197323;28;20072;-84
2023/07/24 10:31:32;;;;;;;0.30;0.30;;;;;;;21.59;64.35;99691.66;5212217;28;20499;-84
2023/07/24 10:34:22;;;;;;;0.70;0.70;;;;;;;21.66;64.22;99691.00;5182811;28;20045;-84
2023/07/24 10:37:13;;;;;;;0.28;0.28;;;;;;;21.81;64.59;99687.91;5189236;28;20024;-85
2023/07/24 10:40:05;;;;;;;0.35;0.35;;;;;;;21.74;63.58;99684.09;5202666;28;20029;-84
2023/07/24 10:43:20;;;;;;;0.20;0.20;;;;;;;21.75;64.27;99678.63;5201251;28;20044;-84
2023/07/24 10:46:12;;;;;;;0.32;0.32;;;;;;;21.80;63.81;99675.53;5203498;28;20420;-84
2023/07/24 10:49:03;;;;;;;0.60;0.57;;;;;;;21.76;62.18;99660.78;5216860;28;20045;-85
2023/07/24 10:52:00;;;;;;;0.40;0.40;;;;;;;21.90;64.10;99648.84;5186498;28;20113;-85
2023/07/24 10:54:51;;;;;;;0.43;0.43;;;;;;;22.01;65.47;99635.34;5185345;28;20040;-85
2023/07/24 10:57:42;;;;;;;1.85;0.30;;;;;;;22.11;64.10;99629.97;5183120;28;20017;-84
2023/07/24 11:00:32;;;;;;;0.52;0.52;;;;;;;21.95;62.14;99620.72;5185257;28;20082;-84
2023/07/24 11:03:23;;;;;;;0.43;0.43;;;;;;;22.06;62.95;99629.56;5185300;28;20109;-83
2023/07/24 11:06:16;;;;;;;0.25;0.25;;;;;;;22.12;63.45;99642.34;5181996;28;20041;-84
2023/07/24 11:09:07;;;;;;;0.57;0.57;;;;;;;22.12;63.90;99629.84;5197042;28;20052;-84
2023/07/24 11:11:58;;;;;;;0.28;0.28;;;;;;;22.14;63.93;99624.34;5198894;28;20024;-84
2023/07/24 11:14:50;;;;;;;0.32;0.32;;;;;;;22.16;63.94;99643.75;5185292;28;20033;-84
2023/07/24 11:17:42;;;;;;;0.20;0.20;;;;;;;22.21;64.48;99668.22;5205229;28;20021;-84
2023/07/24 11:20:33;;;;;;;0.30;0.30;;;;;;;22.02;66.10;99682.44;5186545;28;20094;-84
2023/07/24 11:23:24;;;;;;;0.52;0.52;;;;;;;22.09;65.98;99680.88;5184885;28;20051;-86
2023/07/24 11:26:15;;;;;;;0.40;0.40;;;;;;;22.13;66.81;99713.50;5205982;28;20037;-87
2023/07/24 11:29:12;;;;;;;0.20;0.20;;;;;;;21.87;69.41;99755.94;5220267;28;20037;-88
2023/07/24 11:32:04;;;;;;;0.30;0.30;;;;;;;21.80;70.37;99747.63;5216227;28;20029;-87
2023/07/24 11:34:56;;;;;;;0.22;0.22;;;;;;;21.52;71.64;99758.09;5204238;28;20037;-86
2023/07/24 11:37:47;;;;;;;0.20;0.20;;;;;;;20.70;73.40;99768.59;5226161;28;20243;-87
2023/07/24 11:40:43;;;;;;;0.73;0.35;;;;;;;21.18;71.15;99766.38;5222814;28;20100;-85
2023/07/24 11:43:34;;;;;;;0.50;0.50;;;;;;;21.05;72.22;99751.44;5199269;28;20013;-86
2023/07/24 11:46:27;;;;;;;0.20;0.20;;;;;;;21.25;70.69;99730.19;5194869;28;20033;-83
2023/07/24 11:49:18;;;;;;;0.52;0.52;;;;;;;21.41;70.21;99735.00;5191403;28;20353;-84
2023/07/24 11:52:09;;;;;;;0.35;0.35;;;;;;;20.97;73.01;99747.75;5205748;28;20025;-85
2023/07/24 11:55:03;;;;;;;0.10;0.10;;;;;;;21.13;72.94;99755.25;5205410;28;20771;-85
2023/07/24 11:58:01;;;;;;;0.30;0.30;;;;;;;21.15;72.92;99740.81;5206203;28;20068;-85
2023/07/24 12:00:53;;;;;;;0.20;0.20;;;;;;;21.33;71.82;99738.34;5207766;28;20064;-84
2023/07/24 12:03:44;;;;;;;0.20;0.20;;;;;;;20.93;74.81;99757.84;5193124;28;20032;-85
2023/07/24 12:06:37;;;;;;;0.10;0.10;;;;;;;20.31;76.59;99747.00;5211528;28;20031;-85
2023/07/24 12:09:31;;;;;;;0.38;0.38;;;;;;;20.29;77.00;99724.97;5207250;28;20057;-91
2023/07/24 12:12:21;;;;;;;0.57;0.57;;;;;;;20.24;75.71;99697.91;5196568;28;20026;-91
2023/07/24 12:15:19;;;;;;;0.52;0.52;;;;;;;20.55;74.39;99701.47;5217180;28;20037;-90
2023/07/24 12:18:10;;;;;;;0.22;0.22;;;;;;;20.37;77.51;99708.34;5197200;28;20413;-89
2023/07/24 12:21:01;;;;;;;0.20;0.20;;;;;;;20.07;76.37;99712.63;5170972;28;20037;-90
2023/07/24 12:23:51;;;;;;;0.32;0.32;;;;;;;20.11;76.35;99714.91;5198420;28;20052;-89
2023/07/24 12:26:42;;;;;;;0.20;0.20;;;;;;;20.50;78.56;99697.50;5193841;28;20151;-88
2023/07/24 12:29:33;;;;;;;0.63;0.63;;;;;;;20.62;74.46;99701.78;5195519;28;20036;-89
2023/07/24 12:32:24;;;;;;;0.32;0.30;;;;;;;20.74;73.47;99684.78;5205105;28;20101;-89
2023/07/24 12:35:15;;;;;;;0.20;0.20;;;;;;;20.88;74.93;99686.25;5210443;28;20044;-90
2023/07/24 12:38:06;;;;;;;0.40;0.40;;;;;;;21.05;73.22;99684.75;5225915;28;20269;-90
2023/07/24 12:41:00;;;;;;;2.47;0.77;;;;;;;21.09;71.21;99674.66;5216205;28;20041;-91
2023/07/24 12:43:51;;;;;;;2.20;0.82;;;;;;;21.28;69.83;99660.53;5164431;28;20069;-83
2023/07/24 12:46:42;;;;;;;0.35;0.35;;;;;;;21.45;70.82;99661.72;5142556;28;20034;-83
2023/07/24 12:49:33;;;;;;;0.20;0.20;;;;;;;21.47;70.75;99645.56;5145036;28;20038;-84
2023/07/24 12:52:24;;;;;;;0.20;0.20;;;;;;;21.64;69.67;99639.56;5172354;28;20053;-83
2023/07/24 12:55:15;;;;;;;0.70;0.65;;;;;;;21.86;67.14;99642.94;5167257;28;20025;-87
2023/07/24 12:58:06;;;;;;;1.00;0.57;;;;;;;22.00;69.60;99645.19;5181848;28;20033;-85
2023/07/24 13:00:57;;;;;;;0.47;0.47;;;;;;;22.14;66.05;99645.72;5176543;28;20006;-86
2023/07/24 13:03:47;;;;;;;0.30;0.30;;;;;;;22.19;64.56;99656.81;5181639;28;20018;-84
2023/07/24 13:06:38;;;;;;;0.20;0.20;;;;;;;22.19;63.52;99662.16;5171442;28;20010;-85
2023/07/24 13:09:29;;;;;;;0.20;0.20;;;;;;;22.25;65.94;99682.97;5174730;28;20040;-84
2023/07/24 13:12:20;;;;;;;0.20;0.20;;;;;;;22.25;63.97;99685.66;5163099;28;20014;-83
2023/07/24 13:15:11;;;;;;;0.30;0.30;;;;;;;22.17;63.63;99680.19;5185610;28;20076;-81
2023/07/24 13:18:01;;;;;;;0.30;0.30;;;;;;;22.55;63.94;99670.41;5171933;28;20405;-83
2023/07/24 13:20:52;;;;;;;0.35;0.30;;;;;;;22.61;65.04;99685.88;5152771;28;20029;-83
2023/07/24 13:23:43;;;;;;;0.28;0.28;;;;;;;22.64;65.05;99680.25;5164600;28;20615;-83
2023/07/24 13:26:34;;;;;;;0.20;0.20;;;;;;;22.53;65.11;99683.09;5167566;28;20112;-83